sensor_id;sensor_type;location;lat;lon;timestamp;pressure;altitude;pressure_sealevel;temperature;humidity
34034;BME280;63481;52.588;22.472;2022-10-19T00:00:16;100556.10;;;10.51;95.25
34034;BME280;63481;52.588;22.472;2022-10-19T00:00:50;100552.67;;;10.46;95.26
34034;BME280;63481;52.588;22.472;2022-10-19T00:01:23;100554.94;;;10.43;95.24
34034;BME280;63481;52.588;22.472;2022-10-19T00:01:55;100552.27;;;10.43;95.28
34034;BME280;63481;52.588;22.472;2022-10-19T00:02:26;100553.39;;;10.44;95.25
34034;BME280;63481;52.588;22.472;2022-10-19T00:02:58;100552.56;;;10.44;95.28
34034;BME280;63481;52.588;22.472;2022-10-19T00:03:30;100553.60;;;10.43;95.28
34034;BME280;63481;52.588;22.472;2022-10-19T00:04:03;100555.77;;;10.43;95.30
34034;BME280;63481;52.588;22.472;2022-10-19T00:04:34;100556.38;;;10.45;95.28
34034;BME280;63481;52.588;22.472;2022-10-19T00:05:07;100552.17;;;10.47;95.29
34034;BME280;63481;52.588;22.472;2022-10-19T00:05:38;100556.38;;;10.45;95.32
34034;BME280;63481;52.588;22.472;2022-10-19T00:06:13;100552.27;;;10.43;95.32
34034;BME280;63481;52.588;22.472;2022-10-19T00:06:45;100555.55;;;10.45;95.32
34034;BME280;63481;52.588;22.472;2022-10-19T00:07:16;100556.38;;;10.45;95.36
34034;BME280;63481;52.588;22.472;2022-10-19T00:07:48;100557.32;;;10.48;95.37
34034;BME280;63481;52.588;22.472;2022-10-19T00:08:19;100558.95;;;10.49;95.39
34034;BME280;63481;52.588;22.472;2022-10-19T00:08:52;100559.06;;;10.52;95.40
34034;BME280;63481;52.588;22.472;2022-10-19T00:09:24;100553.22;;;10.52;95.40
34034;BME280;63481;52.588;22.472;2022-10-19T00:09:55;100553.22;;;10.52;95.44
34034;BME280;63481;52.588;22.472;2022-10-19T00:10:26;100554.55;;;10.52;95.45
34034;BME280;63481;52.588;22.472;2022-10-19T00:11:00;100551.38;;;10.53;95.45
34034;BME280;63481;52.588;22.472;2022-10-19T00:11:33;100549.55;;;10.53;95.47
34034;BME280;63481;52.588;22.472;2022-10-19T00:12:05;100549.88;;;10.54;95.47
34034;BME280;63481;52.588;22.472;2022-10-19T00:12:36;100550.48;;;10.56;95.47
34034;BME280;63481;52.588;22.472;2022-10-19T00:13:08;100552.94;;;10.58;95.48
34034;BME280;63481;52.588;22.472;2022-10-19T00:13:40;100547.10;;;10.58;95.48
34034;BME280;63481;52.588;22.472;2022-10-19T00:14:14;100545.44;;;10.57;95.48
34034;BME280;63481;52.588;22.472;2022-10-19T00:14:46;100546.38;;;10.54;95.47
34034;BME280;63481;52.588;22.472;2022-10-19T00:15:18;100545.16;;;10.56;95.46
34034;BME280;63481;52.588;22.472;2022-10-19T00:15:49;100547.61;;;10.58;95.46
34034;BME280;63481;52.588;22.472;2022-10-19T00:16:22;100541.98;;;10.57;95.46
34034;BME280;63481;52.588;22.472;2022-10-19T00:16:54;100542.16;;;10.55;95.46
34034;BME280;63481;52.588;22.472;2022-10-19T00:17:28;100540.72;;;10.53;95.45
34034;BME280;63481;52.588;22.472;2022-10-19T00:17:59;100535.27;;;10.50;95.46
34034;BME280;63481;52.588;22.472;2022-10-19T00:18:31;100541.61;;;10.49;95.46
34034;BME280;63481;52.588;22.472;2022-10-19T00:19:05;100538.33;;;10.47;95.41
34034;BME280;63481;52.588;22.472;2022-10-19T00:19:37;100541.83;;;10.48;95.44
34034;BME280;63481;52.588;22.472;2022-10-19T00:20:10;100536.77;;;10.42;95.44
34034;BME280;63481;52.588;22.472;2022-10-19T00:20:42;100546.00;;;10.40;95.43
34034;BME280;63481;52.588;22.472;2022-10-19T00:21:15;100538.50;;;10.39;95.43
34034;BME280;63481;52.588;22.472;2022-10-19T00:21:47;100536.94;;;10.34;95.43
34034;BME280;63481;52.588;22.472;2022-10-19T00:22:19;100541.27;;;10.35;95.42
34034;BME280;63481;52.588;22.472;2022-10-19T00:22:50;100536.62;;;10.33;95.43
34034;BME280;63481;52.588;22.472;2022-10-19T00:23:22;100534.67;;;10.31;95.45
34034;BME280;63481;52.588;22.472;2022-10-19T00:23:54;100535.38;;;10.29;95.43
34034;BME280;63481;52.588;22.472;2022-10-19T00:24:25;100536.21;;;10.30;95.45
34034;BME280;63481;52.588;22.472;2022-10-19T00:24:56;100530.88;;;10.30;95.46
34034;BME280;63481;52.588;22.472;2022-10-19T00:25:28;100534.77;;;10.27;95.47
34034;BME280;63481;52.588;22.472;2022-10-19T00:26:00;100530.77;;;10.27;95.47
34034;BME280;63481;52.588;22.472;2022-10-19T00:26:32;100532.60;;;10.27;95.48
34034;BME280;63481;52.588;22.472;2022-10-19T00:27:03;100535.89;;;10.29;95.50
34034;BME280;63481;52.588;22.472;2022-10-19T00:27:36;100535.38;;;10.29;95.50
34034;BME280;63481;52.588;22.472;2022-10-19T00:28:08;100530.23;;;10.28;95.54
34034;BME280;63481;52.588;22.472;2022-10-19T00:28:41;100530.62;;;10.25;95.56
34034;BME280;63481;52.588;22.472;2022-10-19T00:29:13;100528.28;;;10.26;95.55
34034;BME280;63481;52.588;22.472;2022-10-19T00:29:45;100529.11;;;10.26;95.56
34034;BME280;63481;52.588;22.472;2022-10-19T00:30:17;100533.44;;;10.27;95.54
34034;BME280;63481;52.588;22.472;2022-10-19T00:30:48;100529.83;;;10.24;95.57
34034;BME280;63481;52.588;22.472;2022-10-19T00:31:20;100528.88;;;10.21;95.57
34034;BME280;63481;52.588;22.472;2022-10-19T00:31:52;100528.27;;;10.19;95.57
34034;BME280;63481;52.588;22.472;2022-10-19T00:32:23;100529.59;;;10.19;95.58
34034;BME280;63481;52.588;22.472;2022-10-19T00:32:55;100524.77;;;10.19;95.59
34034;BME280;63481;52.588;22.472;2022-10-19T00:33:26;100527.05;;;10.22;95.60
34034;BME280;63481;52.588;22.472;2022-10-19T00:33:58;100536.67;;;10.23;95.61
34034;BME280;63481;52.588;22.472;2022-10-19T00:34:30;100535.22;;;10.20;95.62
34034;BME280;63481;52.588;22.472;2022-10-19T00:35:02;100532.44;;;10.18;95.61
34034;BME280;63481;52.588;22.472;2022-10-19T00:35:38;100533.77;;;10.18;95.60
34034;BME280;63481;52.588;22.472;2022-10-19T00:36:20;100529.45;;;10.16;95.62
34034;BME280;63481;52.588;22.472;2022-10-19T00:36:52;100533.66;;;10.15;95.63
34034;BME280;63481;52.588;22.472;2022-10-19T00:37:24;100523.86;;;10.11;95.63
34034;BME280;63481;52.588;22.472;2022-10-19T00:37:55;100528.54;;;10.13;95.62
34034;BME280;63481;52.588;22.472;2022-10-19T00:38:26;100525.88;;;10.13;95.63
34034;BME280;63481;52.588;22.472;2022-10-19T00:38:58;100525.05;;;10.13;95.65
34034;BME280;63481;52.588;22.472;2022-10-19T00:39:30;100523.03;;;10.11;95.65
34034;BME280;63481;52.588;22.472;2022-10-19T00:40:02;100517.59;;;10.08;95.66
34034;BME280;63481;52.588;22.472;2022-10-19T00:40:37;100521.41;;;10.10;95.65
34034;BME280;63481;52.588;22.472;2022-10-19T00:41:09;100521.41;;;10.10;95.66
34034;BME280;63481;52.588;22.472;2022-10-19T00:41:43;100515.75;;;10.09;95.70
34034;BME280;63481;52.588;22.472;2022-10-19T00:42:14;100519.45;;;10.08;95.68
34034;BME280;63481;52.588;22.472;2022-10-19T00:42:46;100522.63;;;10.07;95.67
34034;BME280;63481;52.588;22.472;2022-10-19T00:43:22;100520.97;;;10.06;95.70
34034;BME280;63481;52.588;22.472;2022-10-19T00:45:21;100519.84;;;10.05;95.69
34034;BME280;63481;52.588;22.472;2022-10-19T00:45:52;100517.18;;;10.05;95.69
34034;BME280;63481;52.588;22.472;2022-10-19T00:46:26;100514.90;;;10.02;95.69
34034;BME280;63481;52.588;22.472;2022-10-19T00:47:01;100521.86;;;10.03;95.69
34034;BME280;63481;52.588;22.472;2022-10-19T00:47:33;100514.90;;;10.02;95.69
34034;BME280;63481;52.588;22.472;2022-10-19T00:48:05;100516.85;;;10.04;95.67
34034;BME280;63481;52.588;22.472;2022-10-19T00:48:37;100513.75;;;10.00;95.68
34034;BME280;63481;52.588;22.472;2022-10-19T00:49:15;100518.58;;;10.01;95.66
34034;BME280;63481;52.588;22.472;2022-10-19T00:49:47;100512.13;;;9.99;95.64
34034;BME280;63481;52.588;22.472;2022-10-19T00:50:18;100514.02;;;9.95;95.64
34034;BME280;63481;52.588;22.472;2022-10-19T00:50:52;100518.34;;;9.96;95.64
34034;BME280;63481;52.588;22.472;2022-10-19T00:51:26;100513.02;;;9.96;95.63
34034;BME280;63481;52.588;22.472;2022-10-19T00:52:07;100514.34;;;9.96;95.64
34034;BME280;63481;52.588;22.472;2022-10-19T00:52:40;100516.50;;;9.96;95.64
34034;BME280;63481;52.588;22.472;2022-10-19T00:53:12;100516.50;;;9.96;95.64
34034;BME280;63481;52.588;22.472;2022-10-19T00:53:44;100516.39;;;9.94;95.67
34034;BME280;63481;52.588;22.472;2022-10-19T00:54:16;100515.89;;;9.94;95.66
34034;BME280;63481;52.588;22.472;2022-10-19T00:54:49;100513.22;;;9.94;95.66
34034;BME280;63481;52.588;22.472;2022-10-19T00:55:22;100522.55;;;9.94;95.65
34034;BME280;63481;52.588;22.472;2022-10-19T00:55:54;100517.28;;;9.90;95.66
34034;BME280;63481;52.588;22.472;2022-10-19T00:56:27;100515.12;;;9.90;95.65
34034;BME280;63481;52.588;22.472;2022-10-19T00:56:59;100517.48;;;9.89;95.65
34034;BME280;63481;52.588;22.472;2022-10-19T00:57:31;100523.11;;;9.90;95.64
34034;BME280;63481;52.588;22.472;2022-10-19T00:58:03;100520.27;;;9.91;95.65
34034;BME280;63481;52.588;22.472;2022-10-19T00:58:35;100519.77;;;9.92;95.67
34034;BME280;63481;52.588;22.472;2022-10-19T00:59:07;100521.22;;;9.94;95.67
34034;BME280;63481;52.588;22.472;2022-10-19T00:59:41;100516.56;;;9.92;95.68
34034;BME280;63481;52.588;22.472;2022-10-19T01:00:13;100523.55;;;9.93;95.66
34034;BME280;63481;52.588;22.472;2022-10-19T01:00:44;100515.06;;;9.94;95.65
34034;BME280;63481;52.588;22.472;2022-10-19T01:01:18;100523.55;;;9.93;95.67
34034;BME280;63481;52.588;22.472;2022-10-19T01:01:51;100519.44;;;9.91;95.65
34034;BME280;63481;52.588;22.472;2022-10-19T01:02:23;100521.98;;;9.88;95.64
34034;BME280;63481;52.588;22.472;2022-10-19T01:02:55;100520.45;;;9.90;95.66
34034;BME280;63481;52.588;22.472;2022-10-19T01:03:29;100521.27;;;9.90;95.64
34034;BME280;63481;52.588;22.472;2022-10-19T01:04:01;100515.45;;;9.91;95.66
34034;BME280;63481;52.588;22.472;2022-10-19T01:04:36;100518.23;;;9.93;95.68
34034;BME280;63481;52.588;22.472;2022-10-19T01:05:09;100521.09;;;9.92;95.69
34034;BME280;63481;52.588;22.472;2022-10-19T01:05:41;100520.27;;;9.91;95.69
34034;BME280;63481;52.588;22.472;2022-10-19T01:06:14;100513.79;;;9.90;95.68
34034;BME280;63481;52.588;22.472;2022-10-19T01:06:47;100519.77;;;9.92;95.67
34034;BME280;63481;52.588;22.472;2022-10-19T01:07:18;100514.44;;;9.92;95.67
34034;BME280;63481;52.588;22.472;2022-10-19T01:07:51;100519.77;;;9.92;95.63
34034;BME280;63481;52.588;22.472;2022-10-19T01:08:22;100514.83;;;9.89;95.63
34034;BME280;63481;52.588;22.472;2022-10-19T01:08:54;100512.66;;;9.88;95.60
34034;BME280;63481;52.588;22.472;2022-10-19T01:09:26;100518.37;;;9.85;95.59
34034;BME280;63481;52.588;22.472;2022-10-19T01:09:58;100514.44;;;9.81;95.58
34034;BME280;63481;52.588;22.472;2022-10-19T01:11:26;100515.16;;;9.79;95.54
34034;BME280;63481;52.588;22.472;2022-10-19T01:12:17;100516.48;;;9.79;95.54
34034;BME280;63481;52.588;22.472;2022-10-19T01:14:47;100511.28;;;9.82;95.57
34034;BME280;63481;52.588;22.472;2022-10-19T01:15:40;100509.94;;;9.82;95.56
34034;BME280;63481;52.588;22.472;2022-10-19T01:17:40;100514.42;;;9.75;95.47
34034;BME280;63481;52.588;22.472;2022-10-19T01:19:09;100511.13;;;9.73;95.44
34034;BME280;63481;52.588;22.472;2022-10-19T01:21:16;100504.47;;;9.73;95.47
34034;BME280;63481;52.588;22.472;2022-10-19T01:22:10;100501.27;;;9.73;95.49
34034;BME280;63481;52.588;22.472;2022-10-19T01:24:00;100501.92;;;9.75;95.45
34034;BME280;63481;52.588;22.472;2022-10-19T01:25:38;100499.83;;;9.71;95.42
34034;BME280;63481;52.588;22.472;2022-10-19T01:27:52;100502.19;;;9.70;95.41
34034;BME280;63481;52.588;22.472;2022-10-19T01:29:42;100500.77;;;9.74;95.44
34034;BME280;63481;52.588;22.472;2022-10-19T01:30:20;100503.77;;;9.75;95.42
34034;BME280;63481;52.588;22.472;2022-10-19T01:31:00;100500.59;;;9.75;95.44
34034;BME280;63481;52.588;22.472;2022-10-19T01:32:22;100498.73;;;9.76;95.44
34034;BME280;63481;52.588;22.472;2022-10-19T01:33:03;100493.41;;;9.76;95.46
34034;BME280;63481;52.588;22.472;2022-10-19T01:33:53;100497.93;;;9.75;95.47
34034;BME280;63481;52.588;22.472;2022-10-19T01:34:37;100498.73;;;9.76;95.48
34034;BME280;63481;52.588;22.472;2022-10-19T01:35:27;100492.07;;;9.76;95.52
34034;BME280;63481;52.588;22.472;2022-10-19T01:37:01;100493.02;;;9.79;95.53
34034;BME280;63481;52.588;22.472;2022-10-19T01:37:45;100492.13;;;9.82;95.51
34034;BME280;63481;52.588;22.472;2022-10-19T01:41:40;100485.97;;;9.82;95.41
34034;BME280;63481;52.588;22.472;2022-10-19T01:42:11;100484.14;;;9.82;95.38
34034;BME280;63481;52.588;22.472;2022-10-19T01:42:47;100484.25;;;9.85;95.35
34034;BME280;63481;52.588;22.472;2022-10-19T01:43:31;100482.59;;;9.84;95.34
34034;BME280;63481;52.588;22.472;2022-10-19T01:44:08;100483.42;;;9.84;95.31
34034;BME280;63481;52.588;22.472;2022-10-19T01:44:45;100484.25;;;9.85;95.28
34034;BME280;63481;52.588;22.472;2022-10-19T01:45:20;100482.92;;;9.85;95.26
34034;BME280;63481;52.588;22.472;2022-10-19T01:46:39;100482.30;;;9.83;95.21
34034;BME280;63481;52.588;22.472;2022-10-19T01:47:17;100474.31;;;9.83;95.19
34034;BME280;63481;52.588;22.472;2022-10-19T01:47:58;100476.47;;;9.83;95.17
34034;BME280;63481;52.588;22.472;2022-10-19T01:48:33;100475.25;;;9.86;95.14
34034;BME280;63481;52.588;22.472;2022-10-19T01:49:11;100475.05;;;9.87;95.09
34034;BME280;63481;52.588;22.472;2022-10-19T01:49:54;100473.92;;;9.86;95.04
34034;BME280;63481;52.588;22.472;2022-10-19T01:50:37;100475.55;;;9.87;94.99
34034;BME280;63481;52.588;22.472;2022-10-19T01:51:20;100474.87;;;9.89;94.93
34034;BME280;63481;52.588;22.472;2022-10-19T01:51:58;100468.38;;;9.87;94.90
34034;BME280;63481;52.588;22.472;2022-10-19T01:52:28;100473.42;;;9.86;94.83
34034;BME280;63481;52.588;22.472;2022-10-19T01:53:02;100471.77;;;9.85;94.79
34034;BME280;63481;52.588;22.472;2022-10-19T01:53:42;100470.11;;;9.84;94.77
34034;BME280;63481;52.588;22.472;2022-10-19T01:54:12;100468.98;;;9.83;94.74
34034;BME280;63481;52.588;22.472;2022-10-19T01:54:48;100470.31;;;9.83;94.74
34034;BME280;63481;52.588;22.472;2022-10-19T01:55:20;100471.64;;;9.83;94.73
34034;BME280;63481;52.588;22.472;2022-10-19T01:55:53;100471.44;;;9.84;94.71
34034;BME280;63481;52.588;22.472;2022-10-19T01:56:27;100474.42;;;9.85;94.70
34034;BME280;63481;52.588;22.472;2022-10-19T01:57:01;100469.60;;;9.85;94.65
34034;BME280;63481;52.588;22.472;2022-10-19T01:57:37;100470.94;;;9.85;94.62
34034;BME280;63481;52.588;22.472;2022-10-19T01:58:12;100465.99;;;9.82;94.60
34034;BME280;63481;52.588;22.472;2022-10-19T01:58:45;100477.59;;;9.85;94.59
34034;BME280;63481;52.588;22.472;2022-10-19T01:59:18;100467.14;;;9.83;94.57
34034;BME280;63481;52.588;22.472;2022-10-19T01:59:51;100468.48;;;9.83;94.54
34034;BME280;63481;52.588;22.472;2022-10-19T02:00:24;100465.99;;;9.82;94.53
34034;BME280;63481;52.588;22.472;2022-10-19T02:01:00;100471.32;;;9.82;94.54
34034;BME280;63481;52.588;22.472;2022-10-19T02:01:34;100469.70;;;9.81;94.52
34034;BME280;63481;52.588;22.472;2022-10-19T02:02:09;100473.04;;;9.79;94.51
34034;BME280;63481;52.588;22.472;2022-10-19T02:02:44;100468.93;;;9.76;94.53
34034;BME280;63481;52.588;22.472;2022-10-19T02:03:17;100469.88;;;9.79;94.50
34034;BME280;63481;52.588;22.472;2022-10-19T02:03:50;100473.37;;;9.80;94.50
34034;BME280;63481;52.588;22.472;2022-10-19T02:04:23;100471.83;;;9.81;94.46
34034;BME280;63481;52.588;22.472;2022-10-19T02:04:56;100468.25;;;9.78;94.44
34034;BME280;63481;52.588;22.472;2022-10-19T02:05:31;100467.72;;;9.79;94.40
34034;BME280;63481;52.588;22.472;2022-10-19T02:06:05;100472.09;;;9.76;94.39
34034;BME280;63481;52.588;22.472;2022-10-19T02:06:38;100473.64;;;9.74;94.36
34034;BME280;63481;52.588;22.472;2022-10-19T02:07:10;100476.51;;;9.73;94.36
34034;BME280;63481;52.588;22.472;2022-10-19T02:07:44;100471.36;;;9.71;94.34
34034;BME280;63481;52.588;22.472;2022-10-19T02:08:23;100471.98;;;9.73;94.33
34034;BME280;63481;52.588;22.472;2022-10-19T02:08:54;100472.81;;;9.74;94.35
34034;BME280;63481;52.588;22.472;2022-10-19T02:09:26;100465.20;;;9.71;94.30
34034;BME280;63481;52.588;22.472;2022-10-19T02:09:57;100465.53;;;9.72;94.28
34034;BME280;63481;52.588;22.472;2022-10-19T02:10:30;100474.02;;;9.71;94.29
34034;BME280;63481;52.588;22.472;2022-10-19T02:11:04;100468.08;;;9.69;94.27
34034;BME280;63481;52.588;22.472;2022-10-19T02:11:36;100469.80;;;9.66;94.27
34034;BME280;63481;52.588;22.472;2022-10-19T02:12:09;100467.63;;;9.66;94.27
34034;BME280;63481;52.588;22.472;2022-10-19T02:12:41;100467.84;;;9.64;94.25
34034;BME280;63481;52.588;22.472;2022-10-19T02:13:13;100466.69;;;9.63;94.27
34034;BME280;63481;52.588;22.472;2022-10-19T02:13:49;100468.34;;;9.64;94.26
34034;BME280;63481;52.588;22.472;2022-10-19T02:14:28;100470.69;;;9.63;94.28
34034;BME280;63481;52.588;22.472;2022-10-19T02:15:08;100465.56;;;9.61;94.28
34034;BME280;63481;52.588;22.472;2022-10-19T02:15:36;100466.89;;;9.61;94.28
34034;BME280;63481;52.588;22.472;2022-10-19T02:16:12;100467.08;;;9.59;94.28
34034;BME280;63481;52.588;22.472;2022-10-19T02:16:49;100457.96;;;9.58;94.25
34034;BME280;63481;52.588;22.472;2022-10-19T02:17:24;100458.67;;;9.56;94.27
34034;BME280;63481;52.588;22.472;2022-10-19T02:17:57;100459.50;;;9.56;94.26
34034;BME280;63481;52.588;22.472;2022-10-19T02:18:33;100461.13;;;9.57;94.24
34034;BME280;63481;52.588;22.472;2022-10-19T02:19:06;100457.34;;;9.56;94.21
34034;BME280;63481;52.588;22.472;2022-10-19T02:19:39;100459.35;;;9.54;94.19
34034;BME280;63481;52.588;22.472;2022-10-19T02:20:11;100457.91;;;9.51;94.19
34034;BME280;63481;52.588;22.472;2022-10-19T02:20:43;100459.95;;;9.49;94.19
34034;BME280;63481;52.588;22.472;2022-10-19T02:21:16;100459.62;;;9.48;94.20
34034;BME280;63481;52.588;22.472;2022-10-19T02:21:49;100452.78;;;9.50;94.18
34034;BME280;63481;52.588;22.472;2022-10-19T02:22:21;100455.62;;;9.48;94.17
34034;BME280;63481;52.588;22.472;2022-10-19T02:22:53;100459.00;;;9.46;94.17
34034;BME280;63481;52.588;22.472;2022-10-19T02:23:25;100459.50;;;9.46;94.16
34034;BME280;63481;52.588;22.472;2022-10-19T02:23:58;100463.91;;;9.43;94.16
34034;BME280;63481;52.588;22.472;2022-10-19T02:24:29;100466.42;;;9.40;94.16
34034;BME280;63481;52.588;22.472;2022-10-19T02:25:01;100463.76;;;9.40;94.19
34034;BME280;63481;52.588;22.472;2022-10-19T02:25:33;100465.09;;;9.40;94.20
34034;BME280;63481;52.588;22.472;2022-10-19T02:26:06;100460.09;;;9.41;94.20
34034;BME280;63481;52.588;22.472;2022-10-19T02:26:38;100463.76;;;9.40;94.20
34034;BME280;63481;52.588;22.472;2022-10-19T02:27:10;100451.28;;;9.41;94.19
34034;BME280;63481;52.588;22.472;2022-10-19T02:27:42;100455.59;;;9.42;94.18
34034;BME280;63481;52.588;22.472;2022-10-19T02:28:14;100464.41;;;9.42;94.18
34034;BME280;63481;52.588;22.472;2022-10-19T02:28:46;100462.42;;;9.40;94.18
34034;BME280;63481;52.588;22.472;2022-10-19T02:29:18;100457.81;;;9.38;94.17
34034;BME280;63481;52.588;22.472;2022-10-19T02:29:50;100461.63;;;9.40;94.17
34034;BME280;63481;52.588;22.472;2022-10-19T02:30:22;100456.10;;;9.41;94.18
34034;BME280;63481;52.588;22.472;2022-10-19T02:30:54;100455.48;;;9.39;94.17
34034;BME280;63481;52.588;22.472;2022-10-19T02:31:25;100459.34;;;9.37;94.17
34034;BME280;63481;52.588;22.472;2022-10-19T02:31:57;100465.50;;;9.37;94.16
34034;BME280;63481;52.588;22.472;2022-10-19T02:32:29;100456.69;;;9.37;94.17
34034;BME280;63481;52.588;22.472;2022-10-19T02:33:00;100459.64;;;9.38;94.16
34034;BME280;63481;52.588;22.472;2022-10-19T02:33:32;100458.20;;;9.35;94.18
34034;BME280;63481;52.588;22.472;2022-10-19T02:34:04;100453.58;;;9.33;94.19
34034;BME280;63481;52.588;22.472;2022-10-19T02:34:38;100452.58;;;9.34;94.18
34034;BME280;63481;52.588;22.472;2022-10-19T02:35:11;100455.41;;;9.33;94.19
34034;BME280;63481;52.588;22.472;2022-10-19T02:35:44;100457.58;;;9.33;94.21
34034;BME280;63481;52.588;22.472;2022-10-19T02:36:16;100454.29;;;9.31;94.24
34034;BME280;63481;52.588;22.472;2022-10-19T02:36:48;100455.41;;;9.33;94.24
34034;BME280;63481;52.588;22.472;2022-10-19T02:37:20;100455.23;;;9.34;94.24
34034;BME280;63481;52.588;22.472;2022-10-19T02:37:54;100454.91;;;9.33;94.24
34034;BME280;63481;52.588;22.472;2022-10-19T02:38:28;100456.57;;;9.34;94.24
34034;BME280;63481;52.588;22.472;2022-10-19T02:38:59;100455.74;;;9.34;94.24
34034;BME280;63481;52.588;22.472;2022-10-19T02:39:31;100455.23;;;9.34;94.24
34034;BME280;63481;52.588;22.472;2022-10-19T02:40:04;100453.58;;;9.33;94.24
34034;BME280;63481;52.588;22.472;2022-10-19T02:40:38;100456.87;;;9.35;94.27
34034;BME280;63481;52.588;22.472;2022-10-19T02:41:53;100452.99;;;9.38;94.28
34034;BME280;63481;52.588;22.472;2022-10-19T02:42:37;100456.19;;;9.37;94.28
34034;BME280;63481;52.588;22.472;2022-10-19T02:43:13;100457.69;;;9.36;94.27
34034;BME280;63481;52.588;22.472;2022-10-19T02:43:50;100452.88;;;9.35;94.27
34034;BME280;63481;52.588;22.472;2022-10-19T02:44:39;100455.53;;;9.35;94.27
34034;BME280;63481;52.588;22.472;2022-10-19T02:45:16;100459.02;;;9.36;94.30
34034;BME280;63481;52.588;22.472;2022-10-19T02:46:05;100464.30;;;9.40;94.33
34034;BME280;63481;52.588;22.472;2022-10-19T02:46:41;100459.27;;;9.41;94.34
34034;BME280;63481;52.588;22.472;2022-10-19T02:47:18;100461.30;;;9.39;94.35
34034;BME280;63481;52.588;22.472;2022-10-19T02:47:53;100455.98;;;9.39;94.36
34034;BME280;63481;52.588;22.472;2022-10-19T02:48:24;100453.94;;;9.41;94.38
34034;BME280;63481;52.588;22.472;2022-10-19T02:48:57;100461.42;;;9.41;94.38
34034;BME280;63481;52.588;22.472;2022-10-19T02:49:32;100458.77;;;9.41;94.37
34034;BME280;63481;52.588;22.472;2022-10-19T02:50:06;100454.06;;;9.43;94.37
34034;BME280;63481;52.588;22.472;2022-10-19T02:50:43;100453.77;;;9.42;94.37
34034;BME280;63481;52.588;22.472;2022-10-19T02:51:37;100460.71;;;9.43;94.36
34034;BME280;63481;52.588;22.472;2022-10-19T02:52:07;100460.33;;;9.46;94.34
34034;BME280;63481;52.588;22.472;2022-10-19T02:52:40;100452.67;;;9.47;94.29
34034;BME280;63481;52.588;22.472;2022-10-19T02:53:11;100449.69;;;9.46;94.25
34034;BME280;63481;52.588;22.472;2022-10-19T02:53:43;100449.89;;;9.45;94.22
34034;BME280;63481;52.588;22.472;2022-10-19T02:54:14;100445.57;;;9.44;94.21
34034;BME280;63481;52.588;22.472;2022-10-19T02:54:45;100445.39;;;9.45;94.19
34034;BME280;63481;52.588;22.472;2022-10-19T02:55:17;100449.39;;;9.45;94.17
34034;BME280;63481;52.588;22.472;2022-10-19T02:55:49;100447.23;;;9.45;94.17
34034;BME280;63481;52.588;22.472;2022-10-19T02:56:21;100447.23;;;9.45;94.16
34034;BME280;63481;52.588;22.472;2022-10-19T02:56:53;100448.06;;;9.45;94.17
34034;BME280;63481;52.588;22.472;2022-10-19T02:57:24;100449.89;;;9.45;94.16
34034;BME280;63481;52.588;22.472;2022-10-19T02:57:56;100449.69;;;9.46;94.16
34034;BME280;63481;52.588;22.472;2022-10-19T02:58:27;100451.52;;;9.46;94.16
34034;BME280;63481;52.588;22.472;2022-10-19T02:59:00;100452.67;;;9.47;94.16
34034;BME280;63481;52.588;22.472;2022-10-19T02:59:31;100450.01;;;9.47;94.16
34034;BME280;63481;52.588;22.472;2022-10-19T03:00:05;100453.29;;;9.49;94.18
34034;BME280;63481;52.588;22.472;2022-10-19T03:00:37;100453.80;;;9.49;94.17
34034;BME280;63481;52.588;22.472;2022-10-19T03:01:08;100452.78;;;9.50;94.16
34034;BME280;63481;52.588;22.472;2022-10-19T03:01:40;100447.64;;;9.48;94.18
34034;BME280;63481;52.588;22.472;2022-10-19T03:02:12;100450.01;;;9.47;94.20
34034;BME280;63481;52.588;22.472;2022-10-19T03:02:44;100451.02;;;9.46;94.18
34034;BME280;63481;52.588;22.472;2022-10-19T03:03:15;100448.67;;;9.47;94.21
34034;BME280;63481;52.588;22.472;2022-10-19T03:03:47;100457.28;;;9.49;94.24
34034;BME280;63481;52.588;22.472;2022-10-19T03:04:19;100445.92;;;9.51;94.25
34034;BME280;63481;52.588;22.472;2022-10-19T03:04:50;100443.27;;;9.51;94.27
34034;BME280;63481;52.588;22.472;2022-10-19T03:05:22;100445.62;;;9.50;94.27
34034;BME280;63481;52.588;22.472;2022-10-19T03:05:54;100452.28;;;9.50;94.28
34034;BME280;63481;52.588;22.472;2022-10-19T03:06:25;100451.45;;;9.50;94.26
34034;BME280;63481;52.588;22.472;2022-10-19T03:06:57;100446.63;;;9.49;94.26
34034;BME280;63481;52.588;22.472;2022-10-19T03:07:28;100450.95;;;9.50;94.26
34034;BME280;63481;52.588;22.472;2022-10-19T03:08:00;100452.97;;;9.48;94.26
34034;BME280;63481;52.588;22.472;2022-10-19T03:08:31;100450.01;;;9.47;94.25
34034;BME280;63481;52.588;22.472;2022-10-19T03:09:03;100446.73;;;9.45;94.25
34034;BME280;63481;52.588;22.472;2022-10-19T03:09:34;100445.06;;;9.44;94.26
34034;BME280;63481;52.588;22.472;2022-10-19T03:10:06;100443.53;;;9.46;94.27
34034;BME280;63481;52.588;22.472;2022-10-19T03:10:37;100447.02;;;9.46;94.27
34034;BME280;63481;52.588;22.472;2022-10-19T03:11:09;100453.67;;;9.46;94.26
34034;BME280;63481;52.588;22.472;2022-10-19T03:11:41;100446.19;;;9.46;94.28
34034;BME280;63481;52.588;22.472;2022-10-19T03:12:13;100440.98;;;9.48;94.28
34034;BME280;63481;52.588;22.472;2022-10-19T03:12:44;100449.63;;;9.50;94.30
34034;BME280;63481;52.588;22.472;2022-10-19T03:13:16;100453.29;;;9.49;94.30
34034;BME280;63481;52.588;22.472;2022-10-19T03:13:47;100448.97;;;9.48;94.26
34034;BME280;63481;52.588;22.472;2022-10-19T03:14:18;100451.63;;;9.48;94.26
34034;BME280;63481;52.588;22.472;2022-10-19T03:14:50;100451.78;;;9.51;94.27
34034;BME280;63481;52.588;22.472;2022-10-19T03:15:21;100448.29;;;9.50;94.28